Aeroporto :
LOGIN :

Iscrizione | Disclaimer

   EN    FR    IT 

 










Sommario :    VFR   VFR Marginale   IFR   IFR Intensivo   IFR Molto Intensivo
Visibilità : 
Base nubi : 
>= 8 km
>= 3000ft
5 / 8 km
1000 / 3000 ft
1500m / 5 km
500 / 1000 ft
800 / 1500m
200 / 500 ft
< 800m
< 200 ft
Simboli :   Temporali  Nebbia  Neve Forte  Precipitazioni Forti  Vento > 20 kt
SIGMETs :   Varie  Temporali  Ghiacco  Turbolenza  Onda orograficha  Ceneri Vulcaniche






- Altitudine del aeroporto : 249 ft


EGOS - RAF Shawbury

ULTIMO METAR :
  • 221650Z AUTO 20005KT 9999 FEW046/// BKN180/// 11/07 Q1020

METARs OBSOLETI :
  • 221550Z 23006KT 9999 FEW028 SCT048 BKN180 12/07 Q1020 NOSIG RMK BLU BLU
  • 221520Z 24009KT 9999 FEW028 BKN180 12/07 Q1020 NOSIG RMK BLU BLU
  • 221450Z 23011KT 9999 FEW028 BKN048 13/07 Q1021 NOSIG RMK BLU BLU
  • 221420Z 24009KT 9999 FEW026 BKN044 13/07 Q1021 NOSIG RMK BLU BLU

TAF TAF EGOS
Valido dal 22 a 15 ore il 22 a 18 ore UTC


221338Z 2215/2218 23008KT 9999 FEW025



MetMap, La meteo Aeronautica in un colpo d'occhio ! - Copyright ORBIFLY Dicembre 2007 - Disclaimer

ORBIFLY MET'MAP TEAM :

Programmazione e sviluppo : Alexandra Zaïnal
Concezione e sviluppo : Baudouin d'Aumeries
Co-Programmazione e sviluppo : Marc-Olivier Méhu
Supporto tecnico e logistico : Manuel Goepfert
Aiuto per la traduzione : Arnaldo La Scala

Contatto : metmap@orbifly.com




FONTI E CREDITI :

   NOAA